Historyczne dane pomiarowe

Dodano dane terminowe – wersja testowa.

Dane z okresu 1951-2019

Wersja bazy: 1.34 [2019-03-16, lista zmian], aktualizacja planowana na 2019-04-15

Dane meteo z obszaru Polski uzyskane na podstawie danych udostępnionych przez Instytut Meteorologii i Gospodarki Wodnej – Państwowy Instytut Badawczy.

 

Wybierz Datę:    

       

TemperaturaWilgotnośćWiatrCiśnienieOpadyŚniegCzas trwania zjawisk
 Stacja t tx tn tng RH VA  wxwx mslp ppp RRR   cm mm wxwxwxwxwxwxwx
2019-06-13 25.5 31.7 18.7 16.3-- 3.0 2.7---- 0.0------------
2019-06-12 25.4 31.2 18.7 16.3-- 3.0 3.7---- 0.0------------
2019-06-11 24.9 31.2 17.7 15.8-- 3.3 2.7---- 0.0------------
2019-06-10 23.4 30.2 14.4 13.1-- 4.0 2.7---- 0.0------------
2019-06-09 20.3 25.2 16.3 15.8-- 4.0 1.0---- 0.0------------
2019-06-08 22.8 29.2 15.4 13.4-- 4.3 1.3---- 0.1------------
2019-06-07 21.4 27.2 16.3 14.8-- 3.7 2.7---- 0.0------------
2019-06-06 20.0 26.2 13.9 12.4-- 3.0 1.3---- 0.0------------
2019-06-05 19.5 25.2 13.4 12.4-- 3.3 2.7---- 0.0------------
2019-06-04 20.9 26.2 12.6 10.9-- 3.0 3.0---- 0.0------------
2019-06-03 20.2 27.0 12.1 11.4-- 3.7 1.3---- 0.2------------
2019-06-02 19.2 25.7 11.9 10.4-- 4.7 2.0---- 0.0------------
2019-06-01 17.1 23.1 9.0 7.9-- 6.0 0.7---- 0.0------------
2019-05-31 15.1 20.6 9.5 9.9-- 6.0 2.0---- 0.0------------
2019-05-30 11.2 13.0 10.0 10.4-- 7.0 2.7---- 9.3------------
2019-05-29 14.7 20.3 11.5 10.9-- 6.3 3.7---- 0.3------------
2019-05-28 19.7 22.9 16.3 14.8-- 5.0 4.7---- 0.4------------
2019-05-27 20.2 25.3 15.3 13.9-- 6.3 2.3---- 1.6------------
2019-05-26 17.6 23.6 10.5 9.9-- 5.7 1.7---- 0.0------------
2019-05-25 17.1 21.6 12.9 11.9-- 4.7 3.0---- 0.0------------
2019-05-24 13.3 15.1 11.9 11.4-- 7.0 2.3---- 0.9------------
2019-05-23 14.4 16.6 12.4 11.9-- 7.3 3.0---- 24.7------------
2019-05-22 14.5 17.1 12.4 11.9-- 6.7 2.0---- 5.2------------
2019-05-21 14.7 19.1 12.4 11.4-- 8.0 4.0---- 93.3------------
2019-05-20 18.2 22.3 13.4 12.4-- 5.7 3.0---- 0.0------------
2019-05-19 18.6 25.1 14.4 11.4-- 5.3 2.3---- 4.5------------
2019-05-18 18.1 24.6 12.3 10.9-- 4.7 1.0---- 0.0------------
2019-05-17 16.5 21.6 12.9 13.4-- 6.0 2.0---- 0.0------------
2019-05-16 13.4 17.8 9.5 9.9-- 7.3 1.7---- 16.2------------
2019-05-15 9.9 12.1 7.0 7.4-- 7.3 2.0---- 11.7------------
2019-05-14 6.6 9.1 4.5 4.5-- 8.0 2.0---- 16.8------------
2019-05-13 9.5 13.1 7.5 7.9-- 6.3 3.7---- 3.7------------
2019-05-12 15.2 21.6 10.5 8.4-- 4.0 3.0---- 0.4------------
2019-05-11 13.8 19.1 10.0 9.4-- 4.7 2.0---- 0.0------------
2019-05-10 12.5 18.6 8.5 7.4-- 5.7 1.7---- 0.1------------
2019-05-09 10.6 13.6 8.0 4.0-- 7.3 3.0---- 0.6------------
2019-05-08 9.1 15.6 1.5 -1.0-- 6.3 1.0---- 0.0------------
2019-05-07 9.1 13.1 6.0 5.0-- 6.0 3.3---- 0.0------------
2019-05-06 6.9 9.1 5.0 4.8-- 6.3 3.3---- 0.4------------
2019-05-05 7.4 11.1 4.8 3.0-- 7.3 3.0---- 6.6------------
2019-05-04 10.2 15.6 4.5 2.0-- 6.0 1.7---- 0.0------------
2019-05-03 10.9 15.5 7.5 5.0-- 7.3 2.3---- 4.9------------
2019-05-02 14.1 19.1 10.0 6.1-- 7.0 5.3---- 0.3------------
2019-05-01 11.8 16.6 8.2 6.6-- 6.7 2.7---- 0.4------------
2019-04-30 11.4 13.1 10.5 9.9-- 8.0 4.0---- 5.5------------
2019-04-29 10.7 12.6 9.0 8.9-- 7.7 2.3---- 12.7------------
2019-04-28 10.7 13.3 9.5 9.4-- 8.0 4.0---- 32.2------------
2019-04-27 16.7 24.6 12.2 8.9-- 6.7 4.0---- 12.6------------
2019-04-26 21.6 28.2 15.8 12.4-- 4.0 4.0---- 0.0------------
2019-04-25 18.2 24.2 10.0 7.9-- 5.3 5.3---- 0.0------------
2019-04-24 14.8 17.6 11.0 9.4-- 5.0 4.3---- 0.0------------
2019-04-23 12.8 19.1 6.5 6.5-- 6.0 2.7---- 0.0------------
2019-04-22 11.6 17.1 6.5 3.5-- 5.7 5.0---- 0.0------------
2019-04-21 10.5 17.6 4.5 0.5-- 5.7 2.7---- 0.0------------
2019-04-20 11.5 20.6 0.5 -2.8-- 4.7 2.3---- 0.0------------
2019-04-19 10.9 19.8 2.0 -0.5-- 5.3 1.7---- 0.0------------
2019-04-18 9.2 18.6 0.5 -1.5-- 4.7 1.3---- 0.0------------
2019-04-17 9.5 16.8 3.6 4.0-- 6.3 2.3---- 0.0------------
2019-04-16 4.1 13.6 -3.8 -6.0-- 6.7 3.0---- 1.6------------
2019-04-15 5.0 12.1 -1.9 -3.9-- 5.7 1.7---- 0.0------------
201.7 ms

 

Źródłem pochodzenia danych jest Instytut Meteorologii i Gospodarki Wodnej – Państwowy Instytut Badawczy. Dane Instytutu Meteorologii i Gospodarki Wodnej – Państwowego Instytutu Badawczego zostały przetworzone.

Dane źródłowe można odnaleźć na stronie https://dane.imgw.pl